sensor_id;sensor_type;location;lat;lon;timestamp;temperature;humidity
36716;DHT22;22699;51.034;3.730;2024-03-02T00:00:04;6.90;99.90
36716;DHT22;22699;51.034;3.730;2024-03-02T00:02:43;7.00;99.90
36716;DHT22;22699;51.034;3.730;2024-03-02T00:05:27;6.90;99.90
36716;DHT22;22699;51.034;3.730;2024-03-02T00:07:55;7.20;99.90
36716;DHT22;22699;51.034;3.730;2024-03-02T00:10:24;6.90;99.90
36716;DHT22;22699;51.034;3.730;2024-03-02T00:12:54;6.90;99.90
36716;DHT22;22699;51.034;3.730;2024-03-02T00:18:05;6.80;99.90
36716;DHT22;22699;51.034;3.730;2024-03-02T00:20:31;6.90;99.90
36716;DHT22;22699;51.034;3.730;2024-03-02T00:23:04;6.90;99.90
36716;DHT22;22699;51.034;3.730;2024-03-02T00:25:40;6.90;99.90
36716;DHT22;22699;51.034;3.730;2024-03-02T00:28:23;7.00;99.90
36716;DHT22;22699;51.034;3.730;2024-03-02T00:31:08;6.90;99.90
36716;DHT22;22699;51.034;3.730;2024-03-02T00:33:39;6.90;99.90
36716;DHT22;22699;51.034;3.730;2024-03-02T00:36:06;7.00;99.90
36716;DHT22;22699;51.034;3.730;2024-03-02T00:38:32;7.10;99.90
36716;DHT22;22699;51.034;3.730;2024-03-02T00:41:00;7.10;99.90
36716;DHT22;22699;51.034;3.730;2024-03-02T00:46:04;6.90;99.90
36716;DHT22;22699;51.034;3.730;2024-03-02T00:48:30;6.90;99.90
36716;DHT22;22699;51.034;3.730;2024-03-02T00:51:05;7.00;99.90
36716;DHT22;22699;51.034;3.730;2024-03-02T00:53:32;7.10;99.90
36716;DHT22;22699;51.034;3.730;2024-03-02T00:55:58;7.20;99.90
36716;DHT22;22699;51.034;3.730;2024-03-02T00:58:25;7.20;99.90
36716;DHT22;22699;51.034;3.730;2024-03-02T01:00:50;7.20;99.90
36716;DHT22;22699;51.034;3.730;2024-03-02T01:03:17;7.20;99.90
36716;DHT22;22699;51.034;3.730;2024-03-02T01:05:44;7.00;99.90
36716;DHT22;22699;51.034;3.730;2024-03-02T01:08:10;6.80;99.90
36716;DHT22;22699;51.034;3.730;2024-03-02T01:10:36;6.90;99.90
36716;DHT22;22699;51.034;3.730;2024-03-02T01:13:03;6.90;99.90
36716;DHT22;22699;51.034;3.730;2024-03-02T01:15:28;6.90;99.90
36716;DHT22;22699;51.034;3.730;2024-03-02T01:17:54;6.90;99.90
36716;DHT22;22699;51.034;3.730;2024-03-02T01:20:20;6.90;99.90
36716;DHT22;22699;51.034;3.730;2024-03-02T01:22:45;6.90;99.90
36716;DHT22;22699;51.034;3.730;2024-03-02T01:25:11;7.00;99.90
36716;DHT22;22699;51.034;3.730;2024-03-02T01:27:36;7.00;99.90
36716;DHT22;22699;51.034;3.730;2024-03-02T01:30:02;6.90;99.90
36716;DHT22;22699;51.034;3.730;2024-03-02T01:32:28;6.80;99.90
36716;DHT22;22699;51.034;3.730;2024-03-02T01:34:53;6.80;99.90
36716;DHT22;22699;51.034;3.730;2024-03-02T01:37:19;7.00;99.90
36716;DHT22;22699;51.034;3.730;2024-03-02T01:39:45;6.90;99.90
36716;DHT22;22699;51.034;3.730;2024-03-02T01:42:10;6.90;99.90
36716;DHT22;22699;51.034;3.730;2024-03-02T01:44:36;7.10;99.90
36716;DHT22;22699;51.034;3.730;2024-03-02T01:47:02;7.00;99.90
36716;DHT22;22699;51.034;3.730;2024-03-02T01:49:27;6.90;99.90
36716;DHT22;22699;51.034;3.730;2024-03-02T01:51:53;6.90;99.90
36716;DHT22;22699;51.034;3.730;2024-03-02T01:54:18;6.90;99.90
36716;DHT22;22699;51.034;3.730;2024-03-02T01:56:44;6.80;99.90
36716;DHT22;22699;51.034;3.730;2024-03-02T01:59:11;6.70;99.90
36716;DHT22;22699;51.034;3.730;2024-03-02T02:01:38;6.70;99.90
36716;DHT22;22699;51.034;3.730;2024-03-02T02:04:03;6.80;99.90
36716;DHT22;22699;51.034;3.730;2024-03-02T02:06:29;6.80;99.90
36716;DHT22;22699;51.034;3.730;2024-03-02T02:08:56;6.70;99.90
36716;DHT22;22699;51.034;3.730;2024-03-02T02:11:21;6.70;99.90
36716;DHT22;22699;51.034;3.730;2024-03-02T02:13:47;6.70;99.90
36716;DHT22;22699;51.034;3.730;2024-03-02T02:16:13;6.80;99.90
36716;DHT22;22699;51.034;3.730;2024-03-02T02:18:39;6.60;99.90
36716;DHT22;22699;51.034;3.730;2024-03-02T02:21:05;6.60;99.90
36716;DHT22;22699;51.034;3.730;2024-03-02T02:23:30;6.50;99.90
36716;DHT22;22699;51.034;3.730;2024-03-02T02:25:56;6.60;99.90
36716;DHT22;22699;51.034;3.730;2024-03-02T02:28:23;6.60;99.90
36716;DHT22;22699;51.034;3.730;2024-03-02T02:30:49;6.60;99.90
36716;DHT22;22699;51.034;3.730;2024-03-02T02:33:15;6.60;99.90
36716;DHT22;22699;51.034;3.730;2024-03-02T02:35:42;6.60;99.90
36716;DHT22;22699;51.034;3.730;2024-03-02T02:38:14;6.70;99.90
36716;DHT22;22699;51.034;3.730;2024-03-02T02:40:39;6.80;99.90
36716;DHT22;22699;51.034;3.730;2024-03-02T02:43:05;6.70;99.90
36716;DHT22;22699;51.034;3.730;2024-03-02T02:45:32;6.60;99.90
36716;DHT22;22699;51.034;3.730;2024-03-02T02:47:59;6.60;99.90
36716;DHT22;22699;51.034;3.730;2024-03-02T02:50:27;6.50;99.90
36716;DHT22;22699;51.034;3.730;2024-03-02T02:52:52;6.60;99.90
36716;DHT22;22699;51.034;3.730;2024-03-02T02:55:18;6.60;99.90
36716;DHT22;22699;51.034;3.730;2024-03-02T02:57:43;6.70;99.90
36716;DHT22;22699;51.034;3.730;2024-03-02T03:00:10;6.60;99.90
36716;DHT22;22699;51.034;3.730;2024-03-02T03:02:40;6.60;99.90
36716;DHT22;22699;51.034;3.730;2024-03-02T03:05:10;6.60;99.90
36716;DHT22;22699;51.034;3.730;2024-03-02T03:07:36;6.60;99.90
36716;DHT22;22699;51.034;3.730;2024-03-02T03:10:03;6.50;99.90
36716;DHT22;22699;51.034;3.730;2024-03-02T03:12:30;6.50;99.90
36716;DHT22;22699;51.034;3.730;2024-03-02T03:14:58;6.70;99.90
36716;DHT22;22699;51.034;3.730;2024-03-02T03:17:26;6.60;99.90
36716;DHT22;22699;51.034;3.730;2024-03-02T03:19:52;6.80;99.90
36716;DHT22;22699;51.034;3.730;2024-03-02T03:22:18;6.60;99.90
36716;DHT22;22699;51.034;3.730;2024-03-02T03:24:44;6.60;99.90
36716;DHT22;22699;51.034;3.730;2024-03-02T03:27:10;6.60;99.90
36716;DHT22;22699;51.034;3.730;2024-03-02T03:29:39;6.50;99.90
36716;DHT22;22699;51.034;3.730;2024-03-02T03:32:05;6.70;99.90
36716;DHT22;22699;51.034;3.730;2024-03-02T03:34:35;6.70;99.90
36716;DHT22;22699;51.034;3.730;2024-03-02T03:37:02;6.60;99.90
36716;DHT22;22699;51.034;3.730;2024-03-02T03:39:28;6.60;99.90
36716;DHT22;22699;51.034;3.730;2024-03-02T03:41:54;6.50;99.90
36716;DHT22;22699;51.034;3.730;2024-03-02T03:44:20;6.40;99.90
36716;DHT22;22699;51.034;3.730;2024-03-02T03:46:45;6.40;99.90
36716;DHT22;22699;51.034;3.730;2024-03-02T03:49:11;6.50;99.90
36716;DHT22;22699;51.034;3.730;2024-03-02T03:51:37;6.50;99.90
36716;DHT22;22699;51.034;3.730;2024-03-02T03:54:02;6.50;99.90
36716;DHT22;22699;51.034;3.730;2024-03-02T03:56:28;6.50;99.90
36716;DHT22;22699;51.034;3.730;2024-03-02T03:58:53;6.50;99.90
36716;DHT22;22699;51.034;3.730;2024-03-02T04:01:19;6.50;99.90
36716;DHT22;22699;51.034;3.730;2024-03-02T04:03:45;6.40;99.90
36716;DHT22;22699;51.034;3.730;2024-03-02T04:06:10;6.50;99.90
36716;DHT22;22699;51.034;3.730;2024-03-02T04:08:37;6.50;99.90
36716;DHT22;22699;51.034;3.730;2024-03-02T04:11:04;6.50;99.90
36716;DHT22;22699;51.034;3.730;2024-03-02T04:13:30;6.50;99.90
36716;DHT22;22699;51.034;3.730;2024-03-02T04:15:55;6.50;99.90
36716;DHT22;22699;51.034;3.730;2024-03-02T04:18:21;6.50;99.90
36716;DHT22;22699;51.034;3.730;2024-03-02T04:20:46;6.50;99.90
36716;DHT22;22699;51.034;3.730;2024-03-02T04:23:12;6.50;99.90
36716;DHT22;22699;51.034;3.730;2024-03-02T04:25:38;6.50;99.90
36716;DHT22;22699;51.034;3.730;2024-03-02T04:28:03;6.40;99.90
36716;DHT22;22699;51.034;3.730;2024-03-02T04:30:29;6.50;99.90
36716;DHT22;22699;51.034;3.730;2024-03-02T04:32:55;6.50;99.90
36716;DHT22;22699;51.034;3.730;2024-03-02T04:35:20;6.50;99.90
36716;DHT22;22699;51.034;3.730;2024-03-02T04:37:46;6.60;99.90
36716;DHT22;22699;51.034;3.730;2024-03-02T04:40:12;6.50;99.90
36716;DHT22;22699;51.034;3.730;2024-03-02T04:42:37;6.50;99.90
36716;DHT22;22699;51.034;3.730;2024-03-02T04:45:03;6.50;99.90
36716;DHT22;22699;51.034;3.730;2024-03-02T04:47:29;6.60;99.90
36716;DHT22;22699;51.034;3.730;2024-03-02T04:49:55;6.60;99.90
36716;DHT22;22699;51.034;3.730;2024-03-02T04:52:20;6.60;99.90
36716;DHT22;22699;51.034;3.730;2024-03-02T04:54:47;6.50;99.90
36716;DHT22;22699;51.034;3.730;2024-03-02T04:57:44;6.50;99.90
36716;DHT22;22699;51.034;3.730;2024-03-02T05:00:11;6.40;99.90
36716;DHT22;22699;51.034;3.730;2024-03-02T05:02:38;6.40;99.90
36716;DHT22;22699;51.034;3.730;2024-03-02T05:05:04;6.40;99.90
36716;DHT22;22699;51.034;3.730;2024-03-02T05:07:29;6.40;99.90
36716;DHT22;22699;51.034;3.730;2024-03-02T05:09:55;6.30;99.90
36716;DHT22;22699;51.034;3.730;2024-03-02T05:12:21;6.40;99.90
36716;DHT22;22699;51.034;3.730;2024-03-02T05:15:05;6.40;99.90
36716;DHT22;22699;51.034;3.730;2024-03-02T05:17:34;6.50;99.90
36716;DHT22;22699;51.034;3.730;2024-03-02T05:20:00;6.50;99.90
36716;DHT22;22699;51.034;3.730;2024-03-02T05:22:26;6.40;99.90
36716;DHT22;22699;51.034;3.730;2024-03-02T05:24:52;6.50;99.90
36716;DHT22;22699;51.034;3.730;2024-03-02T05:27:18;6.50;99.90
36716;DHT22;22699;51.034;3.730;2024-03-02T05:29:43;6.30;99.90
36716;DHT22;22699;51.034;3.730;2024-03-02T05:32:09;6.40;99.90
36716;DHT22;22699;51.034;3.730;2024-03-02T05:34:34;6.30;99.90
36716;DHT22;22699;51.034;3.730;2024-03-02T05:37:01;6.30;99.90
36716;DHT22;22699;51.034;3.730;2024-03-02T05:39:27;6.30;99.90
36716;DHT22;22699;51.034;3.730;2024-03-02T05:41:52;6.30;99.90
36716;DHT22;22699;51.034;3.730;2024-03-02T05:44:18;6.20;99.90
36716;DHT22;22699;51.034;3.730;2024-03-02T05:46:45;6.30;99.90
36716;DHT22;22699;51.034;3.730;2024-03-02T05:49:10;6.30;99.90
36716;DHT22;22699;51.034;3.730;2024-03-02T05:51:36;6.30;99.90
36716;DHT22;22699;51.034;3.730;2024-03-02T05:54:02;6.30;99.90
36716;DHT22;22699;51.034;3.730;2024-03-02T05:56:28;6.30;99.90
36716;DHT22;22699;51.034;3.730;2024-03-02T05:58:53;6.20;99.90
36716;DHT22;22699;51.034;3.730;2024-03-02T06:01:25;6.20;99.90
36716;DHT22;22699;51.034;3.730;2024-03-02T06:03:55;6.20;99.90
36716;DHT22;22699;51.034;3.730;2024-03-02T06:06:22;6.10;99.90
36716;DHT22;22699;51.034;3.730;2024-03-02T06:08:47;6.00;99.90
36716;DHT22;22699;51.034;3.730;2024-03-02T06:11:13;6.10;99.90
36716;DHT22;22699;51.034;3.730;2024-03-02T06:13:38;6.10;99.90
36716;DHT22;22699;51.034;3.730;2024-03-02T06:16:04;6.20;99.90
36716;DHT22;22699;51.034;3.730;2024-03-02T06:18:30;6.20;99.90
36716;DHT22;22699;51.034;3.730;2024-03-02T06:20:56;6.20;99.90
36716;DHT22;22699;51.034;3.730;2024-03-02T06:23:22;6.10;99.90
36716;DHT22;22699;51.034;3.730;2024-03-02T06:25:48;6.20;99.90
36716;DHT22;22699;51.034;3.730;2024-03-02T06:28:14;6.10;99.90
36716;DHT22;22699;51.034;3.730;2024-03-02T06:30:42;6.10;99.90
36716;DHT22;22699;51.034;3.730;2024-03-02T06:33:09;6.10;99.90
36716;DHT22;22699;51.034;3.730;2024-03-02T06:35:35;6.10;99.90
36716;DHT22;22699;51.034;3.730;2024-03-02T06:38:01;6.10;99.90
36716;DHT22;22699;51.034;3.730;2024-03-02T06:40:27;6.00;99.90
36716;DHT22;22699;51.034;3.730;2024-03-02T06:42:53;6.00;99.90
36716;DHT22;22699;51.034;3.730;2024-03-02T06:45:19;6.10;99.90
36716;DHT22;22699;51.034;3.730;2024-03-02T06:47:45;6.10;99.90
36716;DHT22;22699;51.034;3.730;2024-03-02T06:50:11;6.10;99.90
36716;DHT22;22699;51.034;3.730;2024-03-02T06:52:37;6.10;99.90
36716;DHT22;22699;51.034;3.730;2024-03-02T06:55:03;6.10;99.90
36716;DHT22;22699;51.034;3.730;2024-03-02T06:57:29;6.10;99.90
36716;DHT22;22699;51.034;3.730;2024-03-02T06:59:55;6.10;99.90
36716;DHT22;22699;51.034;3.730;2024-03-02T07:02:24;6.10;99.90
36716;DHT22;22699;51.034;3.730;2024-03-02T07:04:55;6.10;99.90
36716;DHT22;22699;51.034;3.730;2024-03-02T07:07:21;6.20;99.90
36716;DHT22;22699;51.034;3.730;2024-03-02T07:09:47;6.20;99.90
36716;DHT22;22699;51.034;3.730;2024-03-02T07:12:13;6.20;99.90
36716;DHT22;22699;51.034;3.730;2024-03-02T07:14:39;6.20;99.90
36716;DHT22;22699;51.034;3.730;2024-03-02T07:17:24;6.20;99.90
36716;DHT22;22699;51.034;3.730;2024-03-02T07:19:50;6.20;99.90
36716;DHT22;22699;51.034;3.730;2024-03-02T07:22:16;6.30;99.90
36716;DHT22;22699;51.034;3.730;2024-03-02T07:24:42;6.50;99.90
36716;DHT22;22699;51.034;3.730;2024-03-02T07:27:11;6.50;99.90
36716;DHT22;22699;51.034;3.730;2024-03-02T07:29:37;6.50;99.90
36716;DHT22;22699;51.034;3.730;2024-03-02T07:32:05;6.40;99.90
36716;DHT22;22699;51.034;3.730;2024-03-02T07:34:31;6.50;99.90
36716;DHT22;22699;51.034;3.730;2024-03-02T07:36:56;6.60;99.90
36716;DHT22;22699;51.034;3.730;2024-03-02T07:39:24;6.70;99.90
36716;DHT22;22699;51.034;3.730;2024-03-02T07:41:50;6.80;99.90
36716;DHT22;22699;51.034;3.730;2024-03-02T07:44:19;6.90;99.90
36716;DHT22;22699;51.034;3.730;2024-03-02T07:46:47;6.90;99.90
36716;DHT22;22699;51.034;3.730;2024-03-02T07:49:13;7.00;99.90
36716;DHT22;22699;51.034;3.730;2024-03-02T07:51:42;7.20;99.90
36716;DHT22;22699;51.034;3.730;2024-03-02T07:54:09;7.30;99.90
36716;DHT22;22699;51.034;3.730;2024-03-02T07:56:35;7.10;99.90
36716;DHT22;22699;51.034;3.730;2024-03-02T07:59:02;7.30;99.90
36716;DHT22;22699;51.034;3.730;2024-03-02T08:01:31;7.40;99.90
36716;DHT22;22699;51.034;3.730;2024-03-02T08:03:58;7.40;99.90
36716;DHT22;22699;51.034;3.730;2024-03-02T08:06:27;7.50;99.90
36716;DHT22;22699;51.034;3.730;2024-03-02T08:08:57;8.20;99.90
36716;DHT22;22699;51.034;3.730;2024-03-02T08:11:23;9.80;99.90
36716;DHT22;22699;51.034;3.730;2024-03-02T08:13:48;11.10;99.90
36716;DHT22;22699;51.034;3.730;2024-03-02T08:16:15;12.30;99.90
36716;DHT22;22699;51.034;3.730;2024-03-02T08:18:42;13.50;99.90
36716;DHT22;22699;51.034;3.730;2024-03-02T08:21:07;14.10;99.90
36716;DHT22;22699;51.034;3.730;2024-03-02T08:23:34;14.60;99.00
36716;DHT22;22699;51.034;3.730;2024-03-02T08:25:59;15.40;97.00
36716;DHT22;22699;51.034;3.730;2024-03-02T08:28:25;16.20;94.90
36716;DHT22;22699;51.034;3.730;2024-03-02T08:30:50;16.70;93.80
36716;DHT22;22699;51.034;3.730;2024-03-02T08:33:16;16.80;92.90
36716;DHT22;22699;51.034;3.730;2024-03-02T08:35:41;16.30;93.50
36716;DHT22;22699;51.034;3.730;2024-03-02T08:38:07;16.80;92.60
36716;DHT22;22699;51.034;3.730;2024-03-02T08:40:33;16.60;92.00
36716;DHT22;22699;51.034;3.730;2024-03-02T08:42:58;16.30;92.30
36716;DHT22;22699;51.034;3.730;2024-03-02T08:45:24;16.70;92.00
36716;DHT22;22699;51.034;3.730;2024-03-02T08:47:49;16.80;91.30
36716;DHT22;22699;51.034;3.730;2024-03-02T08:50:15;16.60;91.40
36716;DHT22;22699;51.034;3.730;2024-03-02T08:52:41;16.40;91.60
36716;DHT22;22699;51.034;3.730;2024-03-02T08:55:07;15.40;92.60
36716;DHT22;22699;51.034;3.730;2024-03-02T08:57:33;14.30;94.50
36716;DHT22;22699;51.034;3.730;2024-03-02T08:59:59;13.90;95.20
36716;DHT22;22699;51.034;3.730;2024-03-02T09:02:25;13.60;96.00
36716;DHT22;22699;51.034;3.730;2024-03-02T09:04:51;13.30;96.80
36716;DHT22;22699;51.034;3.730;2024-03-02T09:07:16;13.50;96.60
36716;DHT22;22699;51.034;3.730;2024-03-02T09:09:42;13.80;96.50
36716;DHT22;22699;51.034;3.730;2024-03-02T09:12:07;14.30;96.00
36716;DHT22;22699;51.034;3.730;2024-03-02T09:14:34;14.30;95.30
36716;DHT22;22699;51.034;3.730;2024-03-02T09:17:00;14.00;95.60
36716;DHT22;22699;51.034;3.730;2024-03-02T09:19:25;13.60;96.20
36716;DHT22;22699;51.034;3.730;2024-03-02T09:21:51;13.10;96.90
36716;DHT22;22699;51.034;3.730;2024-03-02T09:24:16;12.30;98.40
36716;DHT22;22699;51.034;3.730;2024-03-02T09:26:42;11.90;99.30
36716;DHT22;22699;51.034;3.730;2024-03-02T09:29:07;11.50;99.90
36716;DHT22;22699;51.034;3.730;2024-03-02T09:31:39;11.00;99.90
36716;DHT22;22699;51.034;3.730;2024-03-02T09:34:05;10.70;99.90
36716;DHT22;22699;51.034;3.730;2024-03-02T09:36:31;10.60;99.90
36716;DHT22;22699;51.034;3.730;2024-03-02T09:38:56;11.90;99.90
36716;DHT22;22699;51.034;3.730;2024-03-02T09:41:22;13.40;99.90
36716;DHT22;22699;51.034;3.730;2024-03-02T09:43:47;14.20;97.20
36716;DHT22;22699;51.034;3.730;2024-03-02T09:46:14;13.80;97.70
36716;DHT22;22699;51.034;3.730;2024-03-02T09:48:40;14.00;97.30
36716;DHT22;22699;51.034;3.730;2024-03-02T09:51:06;13.50;97.70
36716;DHT22;22699;51.034;3.730;2024-03-02T09:53:33;12.90;98.80
36716;DHT22;22699;51.034;3.730;2024-03-02T09:55:59;12.50;99.80
36716;DHT22;22699;51.034;3.730;2024-03-02T09:58:25;12.20;99.90
36716;DHT22;22699;51.034;3.730;2024-03-02T10:00:51;12.10;99.90
36716;DHT22;22699;51.034;3.730;2024-03-02T10:03:18;11.70;99.90
36716;DHT22;22699;51.034;3.730;2024-03-02T10:05:44;11.50;99.90
36716;DHT22;22699;51.034;3.730;2024-03-02T10:08:09;11.40;99.90
36716;DHT22;22699;51.034;3.730;2024-03-02T10:10:39;11.40;99.90
36716;DHT22;22699;51.034;3.730;2024-03-02T10:13:10;11.40;99.90
36716;DHT22;22699;51.034;3.730;2024-03-02T10:15:37;11.40;99.90
36716;DHT22;22699;51.034;3.730;2024-03-02T10:18:04;11.30;99.90
36716;DHT22;22699;51.034;3.730;2024-03-02T10:20:30;11.00;99.90
36716;DHT22;22699;51.034;3.730;2024-03-02T10:23:19;11.10;99.90
36716;DHT22;22699;51.034;3.730;2024-03-02T10:25:46;11.00;99.90
36716;DHT22;22699;51.034;3.730;2024-03-02T10:28:11;10.80;99.90
36716;DHT22;22699;51.034;3.730;2024-03-02T10:30:37;10.70;99.90
36716;DHT22;22699;51.034;3.730;2024-03-02T10:33:06;10.90;99.90
36716;DHT22;22699;51.034;3.730;2024-03-02T10:35:32;11.00;99.90
36716;DHT22;22699;51.034;3.730;2024-03-02T10:38:04;11.00;99.90
36716;DHT22;22699;51.034;3.730;2024-03-02T10:40:30;11.20;99.90
36716;DHT22;22699;51.034;3.730;2024-03-02T10:42:56;11.10;99.90
36716;DHT22;22699;51.034;3.730;2024-03-02T10:45:23;11.00;99.90
36716;DHT22;22699;51.034;3.730;2024-03-02T10:47:49;11.00;99.90
36716;DHT22;22699;51.034;3.730;2024-03-02T10:50:15;11.10;99.90
36716;DHT22;22699;51.034;3.730;2024-03-02T10:52:41;11.10;99.90
36716;DHT22;22699;51.034;3.730;2024-03-02T10:55:09;11.00;99.90
36716;DHT22;22699;51.034;3.730;2024-03-02T10:57:54;11.10;99.90
36716;DHT22;22699;51.034;3.730;2024-03-02T11:00:24;11.10;99.90
36716;DHT22;22699;51.034;3.730;2024-03-02T11:03:04;11.30;99.90
36716;DHT22;22699;51.034;3.730;2024-03-02T11:05:38;11.30;99.90
36716;DHT22;22699;51.034;3.730;2024-03-02T11:08:12;11.30;99.90
36716;DHT22;22699;51.034;3.730;2024-03-02T11:10:51;11.50;99.90
36716;DHT22;22699;51.034;3.730;2024-03-02T11:13:30;11.40;99.90
36716;DHT22;22699;51.034;3.730;2024-03-02T11:16:00;11.30;99.90
36716;DHT22;22699;51.034;3.730;2024-03-02T11:18:31;10.90;99.90
36716;DHT22;22699;51.034;3.730;2024-03-02T11:20:58;11.00;99.90
36716;DHT22;22699;51.034;3.730;2024-03-02T11:23:34;11.30;99.90
36716;DHT22;22699;51.034;3.730;2024-03-02T11:26:19;11.50;99.90
36716;DHT22;22699;51.034;3.730;2024-03-02T11:28:45;11.60;99.90
36716;DHT22;22699;51.034;3.730;2024-03-02T11:31:11;11.80;99.90
36716;DHT22;22699;51.034;3.730;2024-03-02T11:33:38;12.00;99.90
36716;DHT22;22699;51.034;3.730;2024-03-02T11:36:05;11.80;99.90
36716;DHT22;22699;51.034;3.730;2024-03-02T11:38:33;11.80;99.90
36716;DHT22;22699;51.034;3.730;2024-03-02T11:41:00;12.00;99.90
36716;DHT22;22699;51.034;3.730;2024-03-02T11:43:28;11.80;99.90
36716;DHT22;22699;51.034;3.730;2024-03-02T11:46:01;11.70;99.90
36716;DHT22;22699;51.034;3.730;2024-03-02T11:48:31;11.50;99.90
36716;DHT22;22699;51.034;3.730;2024-03-02T11:50:58;11.60;99.90
36716;DHT22;22699;51.034;3.730;2024-03-02T11:53:27;11.70;99.90
36716;DHT22;22699;51.034;3.730;2024-03-02T11:55:55;12.00;99.90
36716;DHT22;22699;51.034;3.730;2024-03-02T11:58:21;12.10;99.90
36716;DHT22;22699;51.034;3.730;2024-03-02T12:00:53;12.00;99.90
36716;DHT22;22699;51.034;3.730;2024-03-02T12:03:22;11.80;99.90
36716;DHT22;22699;51.034;3.730;2024-03-02T12:05:52;11.80;99.90
36716;DHT22;22699;51.034;3.730;2024-03-02T12:08:18;11.80;99.90
36716;DHT22;22699;51.034;3.730;2024-03-02T12:10:58;11.70;99.90
36716;DHT22;22699;51.034;3.730;2024-03-02T12:13:24;11.70;99.90
36716;DHT22;22699;51.034;3.730;2024-03-02T12:15:54;11.80;99.90
36716;DHT22;22699;51.034;3.730;2024-03-02T12:18:24;11.80;99.90
36716;DHT22;22699;51.034;3.730;2024-03-02T12:20:50;11.80;99.90
36716;DHT22;22699;51.034;3.730;2024-03-02T12:23:23;11.50;99.90
36716;DHT22;22699;51.034;3.730;2024-03-02T12:25:49;11.60;99.90
36716;DHT22;22699;51.034;3.730;2024-03-02T12:28:16;11.60;99.90
36716;DHT22;22699;51.034;3.730;2024-03-02T12:30:42;11.40;99.90
36716;DHT22;22699;51.034;3.730;2024-03-02T12:33:11;11.20;99.90
36716;DHT22;22699;51.034;3.730;2024-03-02T12:35:37;11.30;99.90
36716;DHT22;22699;51.034;3.730;2024-03-02T12:38:02;11.10;99.90
36716;DHT22;22699;51.034;3.730;2024-03-02T12:40:28;11.10;99.90
36716;DHT22;22699;51.034;3.730;2024-03-02T12:42:55;11.10;99.90
36716;DHT22;22699;51.034;3.730;2024-03-02T12:45:21;11.10;99.90
36716;DHT22;22699;51.034;3.730;2024-03-02T12:47:50;11.30;99.90
36716;DHT22;22699;51.034;3.730;2024-03-02T12:50:17;11.50;99.90
36716;DHT22;22699;51.034;3.730;2024-03-02T12:52:43;11.20;99.90
36716;DHT22;22699;51.034;3.730;2024-03-02T12:55:09;11.30;99.90
36716;DHT22;22699;51.034;3.730;2024-03-02T12:57:35;11.40;99.90
36716;DHT22;22699;51.034;3.730;2024-03-02T13:00:04;11.00;99.90
36716;DHT22;22699;51.034;3.730;2024-03-02T13:02:40;11.00;99.90
36716;DHT22;22699;51.034;3.730;2024-03-02T13:05:08;11.00;99.90
36716;DHT22;22699;51.034;3.730;2024-03-02T13:07:37;11.30;99.90
36716;DHT22;22699;51.034;3.730;2024-03-02T13:10:05;11.40;99.90
36716;DHT22;22699;51.034;3.730;2024-03-02T13:12:31;11.50;99.90
36716;DHT22;22699;51.034;3.730;2024-03-02T13:14:58;11.50;99.90
36716;DHT22;22699;51.034;3.730;2024-03-02T13:17:29;11.40;99.90
36716;DHT22;22699;51.034;3.730;2024-03-02T13:19:58;11.30;99.90
36716;DHT22;22699;51.034;3.730;2024-03-02T13:22:27;11.30;99.90
36716;DHT22;22699;51.034;3.730;2024-03-02T13:24:53;10.90;99.90
36716;DHT22;22699;51.034;3.730;2024-03-02T13:27:20;10.60;99.90
36716;DHT22;22699;51.034;3.730;2024-03-02T13:29:47;10.50;99.90
36716;DHT22;22699;51.034;3.730;2024-03-02T13:32:16;10.60;99.90
36716;DHT22;22699;51.034;3.730;2024-03-02T13:34:49;10.80;99.90
36716;DHT22;22699;51.034;3.730;2024-03-02T13:37:25;10.60;99.90
36716;DHT22;22699;51.034;3.730;2024-03-02T13:39:52;10.60;99.90
36716;DHT22;22699;51.034;3.730;2024-03-02T13:42:19;10.80;99.90
36716;DHT22;22699;51.034;3.730;2024-03-02T13:44:46;10.90;99.90
36716;DHT22;22699;51.034;3.730;2024-03-02T13:47:15;10.60;99.90
36716;DHT22;22699;51.034;3.730;2024-03-02T13:49:42;10.90;99.90
36716;DHT22;22699;51.034;3.730;2024-03-02T13:52:12;10.90;99.90
36716;DHT22;22699;51.034;3.730;2024-03-02T13:54:43;10.80;99.90
36716;DHT22;22699;51.034;3.730;2024-03-02T13:57:10;10.70;99.90
36716;DHT22;22699;51.034;3.730;2024-03-02T13:59:39;10.90;99.90
36716;DHT22;22699;51.034;3.730;2024-03-02T14:02:08;10.70;99.90
36716;DHT22;22699;51.034;3.730;2024-03-02T14:04:37;10.70;99.90
36716;DHT22;22699;51.034;3.730;2024-03-02T14:07:03;10.70;99.90
36716;DHT22;22699;51.034;3.730;2024-03-02T14:09:32;10.80;99.90
36716;DHT22;22699;51.034;3.730;2024-03-02T14:11:58;10.80;99.90
36716;DHT22;22699;51.034;3.730;2024-03-02T14:14:36;10.70;99.90
36716;DHT22;22699;51.034;3.730;2024-03-02T14:17:07;10.90;99.90
36716;DHT22;22699;51.034;3.730;2024-03-02T14:20:01;10.60;99.90
36716;DHT22;22699;51.034;3.730;2024-03-02T14:22:37;10.50;99.90
36716;DHT22;22699;51.034;3.730;2024-03-02T14:25:05;11.00;99.90
36716;DHT22;22699;51.034;3.730;2024-03-02T14:27:43;10.50;99.90
36716;DHT22;22699;51.034;3.730;2024-03-02T14:30:36;10.70;99.90
36716;DHT22;22699;51.034;3.730;2024-03-02T14:33:16;9.50;99.90
36716;DHT22;22699;51.034;3.730;2024-03-02T14:35:53;10.60;99.90
36716;DHT22;22699;51.034;3.730;2024-03-02T14:38:47;10.50;99.90
36716;DHT22;22699;51.034;3.730;2024-03-02T14:41:20;10.60;99.90
36716;DHT22;22699;51.034;3.730;2024-03-02T14:44:08;10.40;99.90
36716;DHT22;22699;51.034;3.730;2024-03-02T14:46:34;10.80;99.90
36716;DHT22;22699;51.034;3.730;2024-03-02T14:49:08;10.20;99.90
36716;DHT22;22699;51.034;3.730;2024-03-02T14:51:38;10.50;99.90
36716;DHT22;22699;51.034;3.730;2024-03-02T14:54:15;10.40;99.90
36716;DHT22;22699;51.034;3.730;2024-03-02T14:56:44;10.80;99.90
36716;DHT22;22699;51.034;3.730;2024-03-02T14:59:16;10.10;99.90
36716;DHT22;22699;51.034;3.730;2024-03-02T15:01:45;10.10;99.90
36716;DHT22;22699;51.034;3.730;2024-03-02T15:04:11;10.20;99.90
36716;DHT22;22699;51.034;3.730;2024-03-02T15:06:37;10.80;99.90
36716;DHT22;22699;51.034;3.730;2024-03-02T15:09:04;10.30;99.90
36716;DHT22;22699;51.034;3.730;2024-03-02T15:11:29;10.30;99.90
36716;DHT22;22699;51.034;3.730;2024-03-02T15:13:55;10.30;99.90
36716;DHT22;22699;51.034;3.730;2024-03-02T15:16:21;10.30;99.90
36716;DHT22;22699;51.034;3.730;2024-03-02T15:18:46;10.40;99.90
36716;DHT22;22699;51.034;3.730;2024-03-02T15:21:12;10.40;99.90
36716;DHT22;22699;51.034;3.730;2024-03-02T15:23:41;10.40;99.90
36716;DHT22;22699;51.034;3.730;2024-03-02T15:26:06;10.40;99.90
36716;DHT22;22699;51.034;3.730;2024-03-02T15:28:32;10.40;99.90
36716;DHT22;22699;51.034;3.730;2024-03-02T15:30:59;10.30;99.90
36716;DHT22;22699;51.034;3.730;2024-03-02T15:33:26;10.00;99.90
36716;DHT22;22699;51.034;3.730;2024-03-02T15:35:58;10.40;99.90
36716;DHT22;22699;51.034;3.730;2024-03-02T15:38:25;10.40;99.90
36716;DHT22;22699;51.034;3.730;2024-03-02T15:40:51;10.50;99.90
36716;DHT22;22699;51.034;3.730;2024-03-02T15:43:17;10.50;99.90
36716;DHT22;22699;51.034;3.730;2024-03-02T15:45:42;10.50;99.90
36716;DHT22;22699;51.034;3.730;2024-03-02T15:48:08;10.60;99.90